createdAt,value
2018-01-06T00:07:00.444Z,96708.74
2018-01-06T00:10:03.739Z,96709.29
2018-01-06T00:12:36.643Z,96707.31
2018-01-06T00:17:57.269Z,96702.81
2018-01-06T00:20:24.790Z,96700.00
2018-01-06T00:22:56.801Z,96709.36
2018-01-06T00:25:25.486Z,96711.41
2018-01-06T00:27:53.985Z,96704.87
2018-01-06T00:30:22.406Z,96705.66
2018-01-06T00:32:50.190Z,96707.81
2018-01-06T00:35:20.147Z,96706.66
2018-01-06T00:37:48.763Z,96704.70
2018-01-06T00:40:17.433Z,96700.72
2018-01-06T00:42:49.132Z,96709.98
2018-01-06T00:48:19.504Z,96711.77
2018-01-06T00:50:47.139Z,96705.02
2018-01-06T00:53:15.511Z,96703.01
2018-01-06T00:55:43.150Z,96700.75
2018-01-06T00:58:12.152Z,96704.94
2018-01-06T01:00:40.859Z,96708.16
2018-01-06T01:03:08.720Z,96712.86
2018-01-06T01:05:36.333Z,96718.02
2018-01-06T01:08:04.024Z,96715.12
2018-01-06T01:10:31.601Z,96713.50
2018-01-06T01:12:59.257Z,96715.99
2018-01-06T01:15:26.826Z,96716.91
2018-01-06T01:17:55.364Z,96713.63
2018-01-06T01:20:23.060Z,96721.19
2018-01-06T01:22:50.774Z,96691.27
2018-01-06T01:25:21.017Z,96725.13
2018-01-06T01:27:51.731Z,96720.52
2018-01-06T01:39:48.786Z,96718.53
2018-01-06T01:42:17.460Z,96718.72
2018-01-06T01:44:45.026Z,96702.70
2018-01-06T01:47:14.152Z,96713.59
2018-01-06T01:49:44.772Z,96716.41
2018-01-06T01:52:17.133Z,96716.03
2018-01-06T01:54:47.174Z,96718.63
2018-01-06T01:57:17.668Z,96720.33
2018-01-06T01:59:47.218Z,96724.05
2018-01-06T02:11:34.482Z,96723.27
2018-01-06T02:14:14.395Z,96719.02
2018-01-06T02:16:42.030Z,96713.25
2018-01-06T02:19:09.782Z,96720.77
2018-01-06T02:21:37.378Z,96704.78
2018-01-06T02:24:05.205Z,96710.36
2018-01-06T02:35:29.953Z,96716.14
2018-01-06T02:44:38.581Z,96717.70
2018-01-06T02:49:51.147Z,96704.50
2018-01-06T02:52:20.910Z,96703.44
2018-01-06T02:54:50.113Z,96706.00
2018-01-06T02:57:18.269Z,96708.44
2018-01-06T02:59:46.516Z,96711.61
2018-01-06T03:02:15.080Z,96714.72
2018-01-06T03:04:46.318Z,96713.56
2018-01-06T03:07:14.073Z,96710.27
2018-01-06T03:09:42.697Z,96714.66
2018-01-06T03:12:11.002Z,96713.20
2018-01-06T03:14:41.165Z,96713.87
2018-01-06T03:17:08.988Z,96711.03
2018-01-06T03:19:38.043Z,96708.56
2018-01-06T03:22:10.748Z,96707.86
2018-01-06T03:24:39.560Z,96704.11
2018-01-06T03:27:07.335Z,96694.06
2018-01-06T03:29:35.089Z,96687.45
2018-01-06T03:32:03.734Z,96692.36
2018-01-06T03:34:32.915Z,96687.59
2018-01-06T03:37:03.327Z,96688.42
2018-01-06T03:39:33.038Z,96687.36
2018-01-06T03:42:02.623Z,96689.01
2018-01-06T03:44:31.655Z,96684.70
2018-01-06T03:47:00.412Z,96686.02
2018-01-06T03:49:28.130Z,96681.53
2018-01-06T03:54:55.502Z,96681.22
2018-01-06T04:03:14.649Z,96672.77
2018-01-06T04:05:42.832Z,96668.50
2018-01-06T04:08:10.406Z,96675.09
2018-01-06T04:10:38.307Z,96672.46
2018-01-06T04:13:06.637Z,96666.69
2018-01-06T04:15:35.642Z,96666.72
2018-01-06T04:18:03.700Z,96668.45
2018-01-06T04:20:32.580Z,96663.57
2018-01-06T04:23:02.094Z,96662.13
2018-01-06T04:25:29.949Z,96660.23
2018-01-06T04:28:00.140Z,96657.46
2018-01-06T04:30:29.170Z,96622.91
2018-01-06T04:32:56.765Z,96669.87
2018-01-06T04:35:24.560Z,96672.64
2018-01-06T04:37:53.308Z,96663.66
2018-01-06T04:40:21.022Z,96662.19
2018-01-06T04:42:49.811Z,96657.24
2018-01-06T04:45:17.386Z,96663.27
2018-01-06T04:47:46.382Z,96662.75
2018-01-06T04:50:14.174Z,96661.06
2018-01-06T04:52:41.679Z,96661.27
2018-01-06T05:03:53.026Z,96667.70
2018-01-06T05:06:20.637Z,96655.09
2018-01-06T05:08:48.235Z,96650.05
2018-01-06T05:11:15.730Z,96639.86
2018-01-06T05:13:43.254Z,96645.50
2018-01-06T05:16:10.820Z,96641.16
2018-01-06T05:32:48.455Z,96648.87
2018-01-06T05:35:16.103Z,96648.71
2018-01-06T05:57:48.037Z,96676.52
2018-01-06T06:00:16.453Z,96673.98
2018-01-06T06:02:50.772Z,96666.76
2018-01-06T06:05:18.780Z,96677.27
2018-01-06T06:07:46.765Z,96675.58
2018-01-06T06:10:15.725Z,96671.67
2018-01-06T06:12:46.340Z,96677.86
2018-01-06T06:15:14.215Z,96678.55
2018-01-06T06:17:47.613Z,96685.29
2018-01-06T06:20:15.519Z,96675.63
2018-01-06T06:22:46.167Z,96681.23
2018-01-06T06:25:15.315Z,96676.79
2018-01-06T06:27:44.123Z,96674.89
2018-01-06T06:30:13.090Z,96673.80
2018-01-06T06:32:45.876Z,96664.67
2018-01-06T06:35:15.017Z,96666.66
2018-01-06T06:37:47.491Z,96670.08
2018-01-06T06:40:15.427Z,96665.47
2018-01-06T06:42:44.684Z,96658.12
2018-01-06T06:45:12.207Z,96652.27
2018-01-06T06:47:39.741Z,96653.60
2018-01-06T06:50:07.977Z,96658.28
2018-01-06T06:52:35.837Z,96664.31
2018-01-06T06:55:03.519Z,96670.27
2018-01-06T06:57:32.252Z,96671.27
2018-01-06T06:59:59.787Z,96678.16
2018-01-06T07:02:27.333Z,96678.02
2018-01-06T07:04:55.520Z,96672.50
2018-01-06T07:07:23.146Z,96648.76
2018-01-06T07:09:50.714Z,96675.09
2018-01-06T07:12:18.171Z,96660.66
2018-01-06T07:14:45.633Z,96665.95
2018-01-06T07:17:13.648Z,96656.63
2018-01-06T07:19:41.415Z,96684.63
2018-01-06T07:22:09.358Z,96686.02
2018-01-06T08:27:33.707Z,96737.98
2018-01-06T08:30:01.253Z,96748.66
2018-01-06T08:32:31.620Z,96743.87
2018-01-06T08:35:00.863Z,96753.89
2018-01-06T08:37:33.726Z,96760.39
2018-01-06T08:40:03.369Z,96756.38
2018-01-06T08:42:33.957Z,96761.67
2018-01-06T08:45:02.588Z,96753.59
2018-01-06T08:47:32.603Z,96759.52
2018-01-06T08:50:03.802Z,96757.84
2018-01-06T08:52:31.332Z,96751.38
2018-01-06T08:54:59.974Z,96750.15
2018-01-06T08:57:27.554Z,96748.48
2018-01-06T08:59:55.529Z,96754.72
2018-01-06T09:02:23.344Z,96761.41
2018-01-06T09:04:54.406Z,96765.48
2018-01-06T09:07:22.384Z,96760.57
2018-01-06T09:09:53.086Z,96762.17
2018-01-06T09:12:25.808Z,96760.42
2018-01-06T09:14:54.616Z,96766.29
2018-01-06T09:17:24.326Z,96766.79
2018-01-06T09:19:55.464Z,96765.66
2018-01-06T09:22:25.631Z,96768.48
2018-01-06T09:24:55.472Z,96766.78
2018-01-06T09:27:27.983Z,96771.88
2018-01-06T09:29:58.000Z,96765.09
2018-01-06T09:32:28.693Z,96782.77
2018-01-06T09:34:56.547Z,96787.41
2018-01-06T09:37:24.688Z,96788.89
2018-01-06T09:39:55.328Z,96797.27
2018-01-06T09:42:24.341Z,96793.28
2018-01-06T09:44:53.978Z,96793.95
2018-01-06T09:47:23.904Z,96792.69
2018-01-06T09:49:52.646Z,96800.02
2018-01-06T09:52:26.511Z,96792.73
2018-01-06T09:54:55.322Z,96796.23
2018-01-06T09:57:25.430Z,96791.87
2018-01-06T09:59:53.756Z,96788.77
2018-01-06T10:02:23.604Z,96784.02
2018-01-06T10:04:51.716Z,96787.82
2018-01-06T10:07:21.936Z,96787.51
2018-01-06T10:09:50.583Z,96787.34
2018-01-06T10:12:20.048Z,96781.90
2018-01-06T10:14:49.098Z,96784.16
2018-01-06T10:17:20.502Z,96789.00
2018-01-06T10:19:50.573Z,96784.96
2018-01-06T10:22:21.287Z,96780.95
2018-01-06T10:24:51.219Z,96781.88
2018-01-06T10:27:23.515Z,96777.30
2018-01-06T10:29:51.924Z,96781.41
2018-01-06T10:32:20.172Z,96782.59
2018-01-06T10:34:53.481Z,96639.70
2018-01-06T10:37:22.240Z,96767.28
2018-01-06T10:39:51.110Z,96772.64
2018-01-06T10:48:15.127Z,96760.69
2018-01-06T10:50:43.081Z,96757.98
2018-01-06T12:36:42.649Z,96710.41
2018-01-06T12:39:13.098Z,96701.86
2018-01-06T12:41:41.045Z,96688.36
2018-01-06T12:44:08.697Z,96708.68
2018-01-06T12:46:36.175Z,96709.84
2018-01-06T12:49:03.864Z,96713.15
2018-01-06T12:51:31.461Z,96705.31
2018-01-06T12:53:58.980Z,96709.19
2018-01-06T12:56:26.477Z,96723.26
2018-01-06T12:58:54.100Z,96723.95
2018-01-06T13:01:21.632Z,96723.16
2018-01-06T13:03:49.124Z,96731.92
2018-01-06T13:06:16.601Z,96723.83
2018-01-06T13:08:44.040Z,96727.84
2018-01-06T13:11:12.809Z,96728.78
2018-01-06T13:13:40.738Z,96724.33
2018-01-06T13:16:08.292Z,96727.34
2018-01-06T13:18:35.776Z,96724.47
2018-01-06T13:21:03.231Z,96726.80
2018-01-06T13:23:31.185Z,96725.70
2018-01-06T13:25:58.754Z,96717.72
2018-01-06T13:28:26.238Z,96724.85
2018-01-06T13:30:53.729Z,96735.73
2018-01-06T13:33:22.083Z,96737.03
2018-01-06T13:35:49.577Z,96735.38
2018-01-06T13:38:17.061Z,96736.55
2018-01-06T13:40:44.743Z,96733.76
2018-01-06T13:43:13.310Z,96742.76
2018-01-06T13:45:40.818Z,96742.66
2018-01-06T13:48:08.305Z,96744.75
2018-01-06T13:50:35.780Z,96741.69
2018-01-06T13:53:03.301Z,96748.27
2018-01-06T13:55:30.756Z,96748.83
2018-01-06T13:57:58.242Z,96757.42
2018-01-06T14:00:25.860Z,96758.88
2018-01-06T14:02:53.316Z,96757.78
2018-01-06T14:05:20.825Z,96765.00
2018-01-06T14:07:48.383Z,96768.61
2018-01-06T14:10:15.841Z,96768.54
2018-01-06T14:12:44.254Z,96764.97
2018-01-06T14:15:11.724Z,96772.14
2018-01-06T14:17:39.530Z,96772.03
2018-01-06T14:20:07.012Z,96774.17
2018-01-06T14:22:34.624Z,96783.08
2018-01-06T14:25:02.107Z,96776.24
2018-01-06T14:27:29.566Z,96783.52
2018-01-06T14:29:57.079Z,96784.95
2018-01-06T14:32:24.576Z,96785.52
2018-01-06T14:34:52.062Z,96782.45
2018-01-06T14:37:19.523Z,96780.53
2018-01-06T14:39:47.007Z,96780.44
2018-01-06T14:42:14.950Z,96783.00
2018-01-06T14:44:42.440Z,96786.64
2018-01-06T14:47:09.931Z,96783.98
2018-01-06T14:49:37.388Z,96781.86
2018-01-06T14:52:04.865Z,96786.83
2018-01-06T14:54:32.333Z,96786.67
2018-01-06T14:57:00.855Z,96791.52
2018-01-06T14:59:28.309Z,96790.84
2018-01-06T15:01:55.878Z,96802.64
2018-01-06T15:04:23.410Z,96803.05
2018-01-06T15:06:50.986Z,96809.87
2018-01-06T15:09:18.706Z,96807.02
2018-01-06T15:11:46.362Z,96815.02
2018-01-06T15:14:13.856Z,96811.45
2018-01-06T15:16:41.312Z,96812.61
2018-01-06T15:19:08.787Z,96822.36
2018-01-06T15:21:36.320Z,96826.16
2018-01-06T15:24:03.931Z,96827.75
2018-01-06T15:26:31.408Z,96826.01
2018-01-06T15:28:58.908Z,96823.86
2018-01-06T15:31:26.396Z,96819.66
2018-01-06T15:33:53.879Z,96822.44
2018-01-06T15:36:21.395Z,96830.13
2018-01-06T15:38:48.898Z,96829.19
2018-01-06T15:41:16.624Z,96831.70
2018-01-06T15:43:44.111Z,96829.65
2018-01-06T15:46:11.593Z,96830.69
2018-01-06T15:48:39.201Z,96835.66
2018-01-06T15:51:06.703Z,96836.45
2018-01-06T15:53:34.223Z,96837.64
2018-01-06T15:56:01.724Z,96835.74
2018-01-06T15:58:29.263Z,96836.00
2018-01-06T16:00:56.753Z,96832.99
2018-01-06T16:03:24.222Z,96837.73
2018-01-06T16:05:51.779Z,96844.19
2018-01-06T16:08:19.582Z,96846.50
2018-01-06T16:10:47.151Z,96851.21
2018-01-06T16:13:15.425Z,96849.94
2018-01-06T16:15:43.243Z,96846.58
2018-01-06T16:18:11.071Z,96859.80
2018-01-06T16:20:38.515Z,96862.72
2018-01-06T16:23:06.005Z,96858.26
2018-01-06T16:25:33.550Z,96864.98
2018-01-06T16:28:01.036Z,96861.70
2018-01-06T16:30:28.724Z,96863.27
2018-01-06T16:32:56.210Z,96867.56
2018-01-06T16:35:23.832Z,96871.38
2018-01-06T16:37:51.329Z,96867.55
2018-01-06T16:40:19.422Z,96877.88
2018-01-06T16:42:47.183Z,96879.59
2018-01-06T16:45:14.833Z,96877.20
2018-01-06T16:47:42.529Z,96876.12
2018-01-06T16:50:10.056Z,96877.55
2018-01-06T16:52:37.622Z,96880.42
2018-01-06T16:55:05.155Z,96886.42
2018-01-06T16:57:32.723Z,96882.75
2018-01-06T17:00:01.018Z,96878.13
2018-01-06T17:02:28.515Z,96860.37
2018-01-06T17:04:55.976Z,96878.74
2018-01-06T17:07:23.435Z,96887.98
2018-01-06T17:09:51.188Z,96894.59
2018-01-06T17:12:18.660Z,96899.30
2018-01-06T17:14:46.147Z,96897.78
2018-01-06T17:17:17.619Z,96901.34
2018-01-06T17:19:45.242Z,96905.51
2018-01-06T17:22:12.749Z,96909.72
2018-01-06T17:24:40.221Z,96911.70
2018-01-06T17:27:07.683Z,96917.26
2018-01-06T17:29:35.276Z,96912.64
2018-01-06T17:32:02.745Z,96923.16
2018-01-06T17:34:30.565Z,96932.75
2018-01-06T17:36:58.015Z,96930.27
2018-01-06T17:39:25.632Z,96936.08
2018-01-06T17:41:53.476Z,96941.25
2018-01-06T17:44:20.958Z,96944.55
2018-01-06T17:46:49.561Z,96951.56
2018-01-06T17:49:17.062Z,96942.94
2018-01-06T17:51:44.548Z,96947.44
2018-01-06T17:54:12.078Z,96953.24
2018-01-06T17:56:39.704Z,96949.19
2018-01-06T17:59:07.567Z,96952.30
2018-01-06T18:01:35.061Z,96946.91
2018-01-06T18:04:02.545Z,96951.57
2018-01-06T18:06:30.022Z,96953.56
2018-01-06T18:08:57.503Z,96951.86
2018-01-06T18:11:25.052Z,96953.92
2018-01-06T18:13:53.206Z,96953.27
2018-01-06T18:16:20.898Z,96962.13
2018-01-06T18:18:48.347Z,96964.09
2018-01-06T18:21:15.824Z,96967.48
2018-01-06T18:23:43.293Z,96974.30
2018-01-06T18:26:11.012Z,96981.07
2018-01-06T18:28:38.484Z,96986.73
2018-01-06T18:31:05.946Z,96985.42
2018-01-06T18:33:33.463Z,96985.45
2018-01-06T18:36:00.930Z,96990.23
2018-01-06T18:38:28.414Z,96983.34
2018-01-06T18:40:55.899Z,96990.47
2018-01-06T18:43:23.619Z,96991.52
2018-01-06T18:45:51.146Z,96990.77
2018-01-06T18:48:18.607Z,96996.77
2018-01-06T18:50:46.120Z,97000.06
2018-01-06T18:53:13.581Z,97001.17
2018-01-06T18:55:41.125Z,96995.30
2018-01-06T18:58:08.588Z,97004.00
2018-01-06T19:00:36.063Z,97002.02
2018-01-06T19:03:03.640Z,97003.92
2018-01-06T19:05:31.093Z,97008.05
2018-01-06T19:07:58.561Z,97009.22
2018-01-06T19:10:26.489Z,97012.23
2018-01-06T19:12:54.642Z,97017.81
2018-01-06T19:15:22.136Z,97015.68
2018-01-06T19:17:49.810Z,97015.07
2018-01-06T19:20:17.299Z,97012.39
2018-01-06T19:22:44.778Z,97013.87
2018-01-06T19:25:12.233Z,97016.11
2018-01-06T19:27:39.719Z,97021.31
2018-01-06T19:30:07.173Z,97020.52
2018-01-06T19:32:34.666Z,97024.58
2018-01-06T19:35:02.228Z,97028.24
2018-01-06T19:37:29.807Z,97031.17
2018-01-06T19:39:57.673Z,97032.06
2018-01-06T19:42:25.140Z,97037.64
2018-01-06T19:44:52.617Z,97047.81
2018-01-06T19:47:20.181Z,97048.25
2018-01-06T19:49:47.840Z,97045.89
2018-01-06T19:52:15.313Z,97044.30
2018-01-06T19:54:42.779Z,97049.47
2018-01-06T19:57:10.303Z,97051.89
2018-01-06T19:59:37.950Z,97053.10
2018-01-06T20:02:05.484Z,97051.63
2018-01-06T20:04:32.958Z,97056.25
2018-01-06T20:07:00.433Z,97056.75
2018-01-06T20:09:28.195Z,97062.96
2018-01-06T20:11:56.716Z,97074.47
2018-01-06T20:14:24.197Z,97078.23
2018-01-06T20:16:51.674Z,97072.76
2018-01-06T20:19:19.353Z,97081.95
2018-01-06T20:21:46.795Z,97079.86
2018-01-06T20:24:14.261Z,97082.33
2018-01-06T20:26:41.766Z,97078.09
2018-01-06T20:29:09.227Z,97086.48
2018-01-06T20:31:36.780Z,97091.74
2018-01-06T20:34:04.264Z,97101.32
2018-01-06T20:36:31.750Z,97096.02
2018-01-06T20:38:59.799Z,97103.78
2018-01-06T20:41:27.283Z,97102.56
2018-01-06T20:43:55.481Z,97101.55
2018-01-06T20:46:23.008Z,97105.31
2018-01-06T20:48:50.487Z,97106.42
2018-01-06T20:51:18.007Z,97111.94
2018-01-06T20:53:45.465Z,97106.35
2018-01-06T20:56:12.940Z,97110.77
2018-01-06T20:58:40.428Z,97111.77
2018-01-06T21:01:07.902Z,97115.27
2018-01-06T21:03:35.397Z,97115.06
2018-01-06T21:06:02.884Z,97121.48
2018-01-06T21:08:31.083Z,97120.68
2018-01-06T21:10:59.219Z,97119.34
2018-01-06T21:13:26.976Z,97128.06
2018-01-06T21:15:54.694Z,97127.09
2018-01-06T21:18:22.182Z,97115.40
2018-01-06T21:20:49.749Z,97117.14
2018-01-06T21:23:17.347Z,97130.13
2018-01-06T21:25:44.799Z,97135.17
2018-01-06T21:28:12.265Z,97137.98
2018-01-06T21:30:39.767Z,97135.11
2018-01-06T21:33:07.263Z,97131.83
2018-01-06T21:35:34.758Z,97131.30
2018-01-06T21:38:02.333Z,97070.28
2018-01-06T21:40:30.382Z,97124.09
2018-01-06T21:42:57.852Z,97133.70
2018-01-06T21:45:25.519Z,97140.14
2018-01-06T21:47:53.288Z,97142.52
2018-01-06T21:50:20.768Z,97153.22
2018-01-06T21:52:48.306Z,97150.67
2018-01-06T21:55:15.943Z,97153.09
2018-01-06T21:57:43.546Z,97153.48
2018-01-06T22:00:11.029Z,97145.38
2018-01-06T22:02:38.549Z,97149.73
2018-01-06T22:05:06.148Z,97150.48
2018-01-06T22:07:34.334Z,97144.02
2018-01-06T22:10:02.872Z,97153.15
2018-01-06T22:12:30.329Z,97152.16
2018-01-06T22:14:57.819Z,97151.02
2018-01-06T22:17:25.322Z,97156.94
2018-01-06T22:19:52.828Z,97169.73
2018-01-06T22:22:20.355Z,97169.27
2018-01-06T22:24:47.804Z,97171.34
2018-01-06T22:27:16.136Z,97174.83
2018-01-06T22:29:43.639Z,97178.81
2018-01-06T22:32:11.131Z,97177.14
2018-01-06T22:34:38.596Z,97177.09
2018-01-06T22:37:06.089Z,97177.09
2018-01-06T22:39:33.679Z,97186.28
2018-01-06T22:42:01.160Z,97191.34
2018-01-06T22:44:28.767Z,97194.52
2018-01-06T22:46:56.841Z,97201.88
2018-01-06T22:49:24.323Z,97193.39
2018-01-06T22:51:51.810Z,97190.30
2018-01-06T22:54:19.556Z,97186.07
2018-01-06T22:56:47.014Z,97188.83
2018-01-06T22:59:14.489Z,97194.58
2018-01-06T23:01:41.978Z,97191.80
2018-01-06T23:04:09.619Z,97188.04
2018-01-06T23:06:37.100Z,97197.11
2018-01-06T23:09:05.228Z,97196.46
2018-01-06T23:11:32.727Z,97192.46
2018-01-06T23:14:00.312Z,97200.33
2018-01-06T23:16:27.773Z,97199.78
2018-01-06T23:18:55.300Z,97192.62
2018-01-06T23:21:22.804Z,97193.53
2018-01-06T23:23:50.266Z,97200.19
2018-01-06T23:26:17.792Z,97200.98
2018-01-06T23:28:45.407Z,97205.47
2018-01-06T23:31:12.928Z,97210.34
2018-01-06T23:33:40.403Z,97219.30
2018-01-06T23:36:07.926Z,97221.21
2018-01-06T23:38:35.804Z,97219.95
2018-01-06T23:41:03.263Z,97225.30
2018-01-06T23:43:30.742Z,97233.61
2018-01-06T23:45:58.197Z,97241.44
2018-01-06T23:48:25.748Z,97242.90
2018-01-06T23:50:53.299Z,97241.30
2018-01-06T23:53:20.757Z,97240.46
2018-01-06T23:55:48.238Z,97235.92
2018-01-06T23:58:15.691Z,97224.88
